sensor_id;sensor_type;location;lat;lon;timestamp;pressure;altitude;pressure_sealevel;temperature;humidity
26112;BME280;13829;48.990;8.346;2023-05-22T00:01:55;100012.31;;;16.24;100.00
26112;BME280;13829;48.990;8.346;2023-05-22T00:04:22;100012.31;;;16.24;100.00
26112;BME280;13829;48.990;8.346;2023-05-22T00:06:54;100011.56;;;16.19;100.00
26112;BME280;13829;48.990;8.346;2023-05-22T00:09:24;100013.44;;;16.15;100.00
26112;BME280;13829;48.990;8.346;2023-05-22T00:11:51;100009.13;;;16.09;100.00
26112;BME280;13829;48.990;8.346;2023-05-22T00:14:18;100009.22;;;16.05;100.00
26112;BME280;13829;48.990;8.346;2023-05-22T00:16:46;100006.72;;;16.00;100.00
26112;BME280;13829;48.990;8.346;2023-05-22T00:19:14;100003.22;;;15.98;100.00
26112;BME280;13829;48.990;8.346;2023-05-22T00:21:43;99997.88;;;16.00;100.00
26112;BME280;13829;48.990;8.346;2023-05-22T00:24:11;100002.22;;;16.02;100.00
26112;BME280;13829;48.990;8.346;2023-05-22T00:26:38;100004.06;;;15.98;100.00
26112;BME280;13829;48.990;8.346;2023-05-22T00:29:05;99995.50;;;15.89;100.00
26112;BME280;13829;48.990;8.346;2023-05-22T00:31:32;99996.34;;;15.89;100.00
26112;BME280;13829;48.990;8.346;2023-05-22T00:34:00;99994.59;;;15.90;100.00
26112;BME280;13829;48.990;8.346;2023-05-22T00:36:28;99998.91;;;15.94;100.00
26112;BME280;13829;48.990;8.346;2023-05-22T00:38:55;100004.25;;;15.91;100.00
26112;BME280;13829;48.990;8.346;2023-05-22T00:41:22;99994.59;;;15.88;100.00
26112;BME280;13829;48.990;8.346;2023-05-22T00:43:49;99998.19;;;15.87;100.00
26112;BME280;13829;48.990;8.346;2023-05-22T00:46:16;99997.41;;;15.80;100.00
26112;BME280;13829;48.990;8.346;2023-05-22T00:48:46;100005.50;;;15.74;100.00
26112;BME280;13829;48.990;8.346;2023-05-22T00:51:14;99995.88;;;15.70;100.00
26112;BME280;13829;48.990;8.346;2023-05-22T00:53:42;100011.56;;;15.79;100.00
26112;BME280;13829;48.990;8.346;2023-05-22T00:56:10;100003.88;;;15.69;100.00
26112;BME280;13829;48.990;8.346;2023-05-22T00:58:40;100007.19;;;15.77;100.00
26112;BME280;13829;48.990;8.346;2023-05-22T01:01:08;100008.53;;;15.98;100.00
26112;BME280;13829;48.990;8.346;2023-05-22T01:03:37;100016.69;;;15.89;100.00
26112;BME280;13829;48.990;8.346;2023-05-22T01:06:07;100004.06;;;16.00;100.00
26112;BME280;13829;48.990;8.346;2023-05-22T01:08:35;100010.75;;;15.77;100.00
26112;BME280;13829;48.990;8.346;2023-05-22T01:11:11;100007.31;;;15.72;100.00
26112;BME280;13829;48.990;8.346;2023-05-22T01:13:46;100015.47;;;15.63;100.00
26112;BME280;13829;48.990;8.346;2023-05-22T01:16:24;100019.94;;;15.61;100.00
26112;BME280;13829;48.990;8.346;2023-05-22T01:19:00;100022.00;;;15.48;100.00
26112;BME280;13829;48.990;8.346;2023-05-22T01:21:43;100016.13;;;15.32;100.00
26112;BME280;13829;48.990;8.346;2023-05-22T01:24:40;100008.16;;;15.33;100.00
26112;BME280;13829;48.990;8.346;2023-05-22T01:27:32;100017.63;;;15.45;100.00
26112;BME280;13829;48.990;8.346;2023-05-22T01:30:48;100012.41;;;15.41;100.00
26112;BME280;13829;48.990;8.346;2023-05-22T01:33:17;100015.75;;;15.49;100.00
26112;BME280;13829;48.990;8.346;2023-05-22T01:35:47;100022.13;;;15.42;100.00
26112;BME280;13829;48.990;8.346;2023-05-22T01:38:19;100024.84;;;15.37;100.00
26112;BME280;13829;48.990;8.346;2023-05-22T01:40:47;100023.97;;;15.38;100.00
26112;BME280;13829;48.990;8.346;2023-05-22T01:43:14;100025.47;;;15.50;100.00
26112;BME280;13829;48.990;8.346;2023-05-22T01:45:41;100042.31;;;15.47;100.00
26112;BME280;13829;48.990;8.346;2023-05-22T01:48:10;100033.69;;;15.36;100.00
26112;BME280;13829;48.990;8.346;2023-05-22T01:50:38;100038.78;;;15.47;100.00
26112;BME280;13829;48.990;8.346;2023-05-22T01:53:11;100039.13;;;15.30;100.00
26112;BME280;13829;48.990;8.346;2023-05-22T01:55:50;100033.94;;;15.24;100.00
26112;BME280;13829;48.990;8.346;2023-05-22T01:58:35;100031.47;;;15.16;100.00
26112;BME280;13829;48.990;8.346;2023-05-22T02:01:04;100041.19;;;15.15;100.00
26112;BME280;13829;48.990;8.346;2023-05-22T02:03:36;100039.44;;;15.14;100.00
26112;BME280;13829;48.990;8.346;2023-05-22T02:06:07;100041.22;;;15.12;100.00
26112;BME280;13829;48.990;8.346;2023-05-22T02:08:38;100040.41;;;15.10;100.00
26112;BME280;13829;48.990;8.346;2023-05-22T02:11:09;100041.28;;;15.11;100.00
26112;BME280;13829;48.990;8.346;2023-05-22T02:13:37;100044.59;;;15.22;100.00
26112;BME280;13829;48.990;8.346;2023-05-22T02:16:05;100043.75;;;15.19;100.00
26112;BME280;13829;48.990;8.346;2023-05-22T02:18:32;100036.59;;;15.24;100.00
26112;BME280;13829;48.990;8.346;2023-05-22T02:21:01;100040.19;;;15.23;100.00
26112;BME280;13829;48.990;8.346;2023-05-22T02:23:28;100045.47;;;15.23;100.00
26112;BME280;13829;48.990;8.346;2023-05-22T02:25:55;100049.84;;;15.24;100.00
26112;BME280;13829;48.990;8.346;2023-05-22T02:28:22;100047.34;;;15.18;100.00
26112;BME280;13829;48.990;8.346;2023-05-22T02:30:49;100043.81;;;15.17;100.00
26112;BME280;13829;48.990;8.346;2023-05-22T02:33:16;100041.91;;;15.24;100.00
26112;BME280;13829;48.990;8.346;2023-05-22T02:35:43;100054.91;;;15.36;100.00
26112;BME280;13829;48.990;8.346;2023-05-22T02:38:12;100046.06;;;15.37;100.00
26112;BME280;13829;48.990;8.346;2023-05-22T02:40:39;100044.13;;;15.44;100.00
26112;BME280;13829;48.990;8.346;2023-05-22T02:43:06;100035.16;;;15.51;100.00
26112;BME280;13829;48.990;8.346;2023-05-22T02:45:33;100032.38;;;15.57;100.00
26112;BME280;13829;48.990;8.346;2023-05-22T02:48:00;100039.44;;;15.58;100.00
26112;BME280;13829;48.990;8.346;2023-05-22T02:50:28;100042.94;;;15.59;100.00
26112;BME280;13829;48.990;8.346;2023-05-22T02:52:55;100044.69;;;15.60;100.00
26112;BME280;13829;48.990;8.346;2023-05-22T02:55:23;100040.09;;;15.68;100.00
26112;BME280;13829;48.990;8.346;2023-05-22T02:57:50;100042.72;;;15.68;100.00
26112;BME280;13829;48.990;8.346;2023-05-22T03:00:18;100045.25;;;15.74;100.00
26112;BME280;13829;48.990;8.346;2023-05-22T03:02:46;100055.00;;;15.74;100.00
26112;BME280;13829;48.990;8.346;2023-05-22T03:05:13;100053.19;;;15.76;100.00
26112;BME280;13829;48.990;8.346;2023-05-22T03:07:42;100053.06;;;15.84;100.00
26112;BME280;13829;48.990;8.346;2023-05-22T03:10:09;100046.06;;;15.78;100.00
26112;BME280;13829;48.990;8.346;2023-05-22T03:12:38;100054.88;;;15.80;100.00
26112;BME280;13829;48.990;8.346;2023-05-22T03:15:06;100045.03;;;15.87;100.00
26112;BME280;13829;48.990;8.346;2023-05-22T03:17:33;100049.34;;;15.92;100.00
26112;BME280;13829;48.990;8.346;2023-05-22T03:20:00;100050.31;;;15.87;100.00
26112;BME280;13829;48.990;8.346;2023-05-22T03:22:27;100050.28;;;15.88;100.00
26112;BME280;13829;48.990;8.346;2023-05-22T03:24:54;100052.94;;;15.88;100.00
26112;BME280;13829;48.990;8.346;2023-05-22T03:27:21;100054.78;;;15.86;100.00
26112;BME280;13829;48.990;8.346;2023-05-22T03:29:49;100054.78;;;15.86;100.00
26112;BME280;13829;48.990;8.346;2023-05-22T03:32:16;100059.03;;;15.92;100.00
26112;BME280;13829;48.990;8.346;2023-05-22T03:34:43;100058.31;;;15.85;100.00
26112;BME280;13829;48.990;8.346;2023-05-22T03:37:10;100058.28;;;15.87;100.00
26112;BME280;13829;48.990;8.346;2023-05-22T03:39:37;100048.69;;;15.79;100.00
26112;BME280;13829;48.990;8.346;2023-05-22T03:42:05;100051.41;;;15.76;100.00
26112;BME280;13829;48.990;8.346;2023-05-22T03:44:32;100053.22;;;15.74;100.00
26112;BME280;13829;48.990;8.346;2023-05-22T03:47:00;100043.47;;;15.76;100.00
26112;BME280;13829;48.990;8.346;2023-05-22T03:49:27;100045.25;;;15.74;100.00
26112;BME280;13829;48.990;8.346;2023-05-22T03:51:54;100047.00;;;15.75;100.00
26112;BME280;13829;48.990;8.346;2023-05-22T03:54:21;100040.84;;;15.75;100.00
26112;BME280;13829;48.990;8.346;2023-05-22T03:56:49;100046.09;;;15.76;100.00
26112;BME280;13829;48.990;8.346;2023-05-22T03:59:16;100039.09;;;15.74;100.00
26112;BME280;13829;48.990;8.346;2023-05-22T04:01:43;100047.00;;;15.75;100.00
26112;BME280;13829;48.990;8.346;2023-05-22T04:04:12;100039.94;;;15.74;100.00
26112;BME280;13829;48.990;8.346;2023-05-22T04:06:41;100047.84;;;15.77;100.00
26112;BME280;13829;48.990;8.346;2023-05-22T04:09:09;100046.88;;;15.83;100.00
26112;BME280;13829;48.990;8.346;2023-05-22T04:11:37;100048.56;;;15.86;100.00
26112;BME280;13829;48.990;8.346;2023-05-22T04:14:05;100049.34;;;15.91;100.00
26112;BME280;13829;48.990;8.346;2023-05-22T04:16:32;100051.94;;;15.94;100.00
26112;BME280;13829;48.990;8.346;2023-05-22T04:18:59;100052.75;;;15.97;100.00
26112;BME280;13829;48.990;8.346;2023-05-22T04:21:29;100057.03;;;16.03;100.00
26112;BME280;13829;48.990;8.346;2023-05-22T04:23:59;100059.50;;;16.11;100.00
26112;BME280;13829;48.990;8.346;2023-05-22T04:26:26;100053.09;;;16.20;100.00
26112;BME280;13829;48.990;8.346;2023-05-22T04:28:56;100051.16;;;16.28;100.00
26112;BME280;13829;48.990;8.346;2023-05-22T04:31:23;100054.41;;;16.39;100.00
26112;BME280;13829;48.990;8.346;2023-05-22T04:33:50;100050.63;;;16.50;100.00
26112;BME280;13829;48.990;8.346;2023-05-22T04:36:19;100055.63;;;16.62;100.00
26112;BME280;13829;48.990;8.346;2023-05-22T04:38:52;100049.16;;;16.72;100.00
26112;BME280;13829;48.990;8.346;2023-05-22T04:41:19;100058.47;;;16.89;100.00
26112;BME280;13829;48.990;8.346;2023-05-22T04:43:51;100052.66;;;17.07;100.00
26112;BME280;13829;48.990;8.346;2023-05-22T04:46:18;100047.97;;;17.17;100.00
26112;BME280;13829;48.990;8.346;2023-05-22T04:48:46;100053.91;;;17.27;100.00
26112;BME280;13829;48.990;8.346;2023-05-22T04:51:13;100047.41;;;17.37;100.00
26112;BME280;13829;48.990;8.346;2023-05-22T04:53:40;100050.56;;;17.50;100.00
26112;BME280;13829;48.990;8.346;2023-05-22T04:56:08;100052.16;;;17.57;100.00
26112;BME280;13829;48.990;8.346;2023-05-22T04:58:35;100052.94;;;17.61;100.00
26112;BME280;13829;48.990;8.346;2023-05-22T05:01:03;100050.63;;;17.79;100.00
26112;BME280;13829;48.990;8.346;2023-05-22T05:03:30;100059.97;;;17.92;100.00
26112;BME280;13829;48.990;8.346;2023-05-22T05:05:57;100057.88;;;18.03;100.00
26112;BME280;13829;48.990;8.346;2023-05-22T05:08:25;100064.38;;;18.21;100.00
26112;BME280;13829;48.990;8.346;2023-05-22T05:10:51;100066.97;;;18.24;100.00
26112;BME280;13829;48.990;8.346;2023-05-22T05:13:20;100064.00;;;18.34;100.00
26112;BME280;13829;48.990;8.346;2023-05-22T05:15:47;100069.84;;;18.45;100.00
26112;BME280;13829;48.990;8.346;2023-05-22T05:18:14;100065.19;;;18.52;100.00
26112;BME280;13829;48.990;8.346;2023-05-22T05:20:41;100065.53;;;18.68;100.00
26112;BME280;13829;48.990;8.346;2023-05-22T05:23:08;100069.81;;;18.73;100.00
26112;BME280;13829;48.990;8.346;2023-05-22T05:25:35;100063.72;;;18.68;100.00
26112;BME280;13829;48.990;8.346;2023-05-22T05:28:03;100067.78;;;18.80;100.00
26112;BME280;13829;48.990;8.346;2023-05-22T05:30:36;100068.50;;;18.85;100.00
26112;BME280;13829;48.990;8.346;2023-05-22T05:33:04;100066.59;;;18.89;100.00
26112;BME280;13829;48.990;8.346;2023-05-22T05:35:30;100061.84;;;18.99;100.00
26112;BME280;13829;48.990;8.346;2023-05-22T05:37:57;100071.63;;;18.98;100.00
26112;BME280;13829;48.990;8.346;2023-05-22T05:40:24;100071.53;;;19.01;100.00
26112;BME280;13829;48.990;8.346;2023-05-22T05:42:51;100069.13;;;19.19;100.00
26112;BME280;13829;48.990;8.346;2023-05-22T05:45:18;100068.91;;;19.25;100.00
26112;BME280;13829;48.990;8.346;2023-05-22T05:47:46;100066.94;;;19.54;100.00
26112;BME280;13829;48.990;8.346;2023-05-22T05:50:13;100077.25;;;19.63;100.00
26112;BME280;13829;48.990;8.346;2023-05-22T05:52:41;100073.91;;;19.82;100.00
26112;BME280;13829;48.990;8.346;2023-05-22T05:55:08;100073.09;;;20.03;100.00
26112;BME280;13829;48.990;8.346;2023-05-22T05:57:35;100078.78;;;20.18;100.00
26112;BME280;13829;48.990;8.346;2023-05-22T06:00:03;100083.72;;;20.27;100.00
26112;BME280;13829;48.990;8.346;2023-05-22T06:02:31;100082.28;;;20.41;100.00
26112;BME280;13829;48.990;8.346;2023-05-22T06:05:00;100084.50;;;20.51;100.00
26112;BME280;13829;48.990;8.346;2023-05-22T06:07:27;100084.09;;;20.62;100.00
26112;BME280;13829;48.990;8.346;2023-05-22T06:09:54;100085.88;;;20.84;98.13
26112;BME280;13829;48.990;8.346;2023-05-22T06:12:21;100084.25;;;20.80;97.00
26112;BME280;13829;48.990;8.346;2023-05-22T06:14:48;100085.41;;;20.95;96.97
26112;BME280;13829;48.990;8.346;2023-05-22T06:17:15;100092.75;;;21.10;97.03
26112;BME280;13829;48.990;8.346;2023-05-22T06:19:42;100096.56;;;21.25;94.73
26112;BME280;13829;48.990;8.346;2023-05-22T06:22:10;100089.84;;;21.35;94.91
26112;BME280;13829;48.990;8.346;2023-05-22T06:24:37;100095.22;;;21.56;93.78
26112;BME280;13829;48.990;8.346;2023-05-22T06:27:05;100100.28;;;21.62;90.08
26112;BME280;13829;48.990;8.346;2023-05-22T06:29:32;100100.22;;;21.64;88.22
26112;BME280;13829;48.990;8.346;2023-05-22T06:31:59;100101.16;;;21.63;88.94
26112;BME280;13829;48.990;8.346;2023-05-22T06:34:25;100093.34;;;21.77;88.19
26112;BME280;13829;48.990;8.346;2023-05-22T06:36:53;100092.19;;;21.83;87.90
26112;BME280;13829;48.990;8.346;2023-05-22T06:39:22;100102.25;;;21.97;86.01
26112;BME280;13829;48.990;8.346;2023-05-22T06:41:49;100101.06;;;22.41;85.82
26112;BME280;13829;48.990;8.346;2023-05-22T06:44:16;100097.66;;;23.26;84.29
26112;BME280;13829;48.990;8.346;2023-05-22T06:46:43;100093.81;;;24.46;75.02
26112;BME280;13829;48.990;8.346;2023-05-22T06:49:10;100101.72;;;26.12;64.86
26112;BME280;13829;48.990;8.346;2023-05-22T06:51:37;100092.69;;;27.47;58.36
26112;BME280;13829;48.990;8.346;2023-05-22T06:54:04;100086.75;;;28.18;52.95
26112;BME280;13829;48.990;8.346;2023-05-22T06:56:34;100088.09;;;28.96;51.69
26112;BME280;13829;48.990;8.346;2023-05-22T06:59:01;100088.72;;;29.47;48.27
26112;BME280;13829;48.990;8.346;2023-05-22T07:01:28;100083.03;;;29.95;48.16
26112;BME280;13829;48.990;8.346;2023-05-22T07:03:57;100091.06;;;30.73;46.32
26112;BME280;13829;48.990;8.346;2023-05-22T07:06:25;100086.56;;;31.16;44.07
26112;BME280;13829;48.990;8.346;2023-05-22T07:08:52;100098.91;;;31.72;43.13
26112;BME280;13829;48.990;8.346;2023-05-22T07:11:19;100094.47;;;31.81;41.45
26112;BME280;13829;48.990;8.346;2023-05-22T07:13:48;100102.78;;;32.30;40.36
26112;BME280;13829;48.990;8.346;2023-05-22T07:16:15;100100.25;;;32.67;40.99
26112;BME280;13829;48.990;8.346;2023-05-22T07:18:42;100104.38;;;32.72;40.06
26112;BME280;13829;48.990;8.346;2023-05-22T07:21:10;100112.97;;;33.36;37.70
26112;BME280;13829;48.990;8.346;2023-05-22T07:23:37;100105.13;;;33.60;36.90
26112;BME280;13829;48.990;8.346;2023-05-22T07:26:05;100108.75;;;33.51;36.36
26112;BME280;13829;48.990;8.346;2023-05-22T07:28:32;100103.69;;;33.66;37.51
26112;BME280;13829;48.990;8.346;2023-05-22T07:31:00;100111.09;;;33.46;37.44
26112;BME280;13829;48.990;8.346;2023-05-22T07:33:27;100110.53;;;33.32;37.88
26112;BME280;13829;48.990;8.346;2023-05-22T07:35:54;100117.00;;;33.12;37.95
26112;BME280;13829;48.990;8.346;2023-05-22T07:38:21;100112.25;;;33.33;39.66
26112;BME280;13829;48.990;8.346;2023-05-22T07:40:48;100122.03;;;33.16;38.37
26112;BME280;13829;48.990;8.346;2023-05-22T07:43:15;100120.44;;;32.04;39.19
26112;BME280;13829;48.990;8.346;2023-05-22T07:45:42;100120.97;;;30.62;41.33
26112;BME280;13829;48.990;8.346;2023-05-22T07:48:11;100123.16;;;29.33;44.31
26112;BME280;13829;48.990;8.346;2023-05-22T07:50:38;100126.13;;;28.70;48.66
26112;BME280;13829;48.990;8.346;2023-05-22T07:53:09;100126.47;;;28.04;48.26
26112;BME280;13829;48.990;8.346;2023-05-22T07:55:36;100133.00;;;27.63;49.25
26112;BME280;13829;48.990;8.346;2023-05-22T07:58:03;100123.63;;;27.28;49.71
26112;BME280;13829;48.990;8.346;2023-05-22T08:00:30;100123.59;;;27.43;51.94
26112;BME280;13829;48.990;8.346;2023-05-22T08:02:57;100119.56;;;27.74;51.60
26112;BME280;13829;48.990;8.346;2023-05-22T08:05:26;100120.44;;;27.62;50.70
26112;BME280;13829;48.990;8.346;2023-05-22T08:07:53;100126.81;;;27.61;51.60
26112;BME280;13829;48.990;8.346;2023-05-22T08:10:20;100121.59;;;27.83;50.62
26112;BME280;13829;48.990;8.346;2023-05-22T08:12:47;100119.84;;;28.08;50.05
26112;BME280;13829;48.990;8.346;2023-05-22T08:15:14;100123.09;;;28.13;50.28
26112;BME280;13829;48.990;8.346;2023-05-22T08:17:40;100123.34;;;27.85;51.18
26112;BME280;13829;48.990;8.346;2023-05-22T08:20:08;100121.84;;;27.55;52.50
26112;BME280;13829;48.990;8.346;2023-05-22T08:22:38;100125.53;;;27.41;53.03
26112;BME280;13829;48.990;8.346;2023-05-22T08:25:06;100126.81;;;27.35;53.47
26112;BME280;13829;48.990;8.346;2023-05-22T08:27:33;100119.97;;;27.16;52.88
26112;BME280;13829;48.990;8.346;2023-05-22T08:30:01;100121.16;;;27.12;52.76
26112;BME280;13829;48.990;8.346;2023-05-22T08:32:28;100126.97;;;26.93;53.95
26112;BME280;13829;48.990;8.346;2023-05-22T08:34:55;100130.59;;;26.79;54.35
26112;BME280;13829;48.990;8.346;2023-05-22T08:37:23;100113.00;;;27.40;56.80
26112;BME280;13829;48.990;8.346;2023-05-22T08:39:52;100121.91;;;28.42;53.06
26112;BME280;13829;48.990;8.346;2023-05-22T08:42:19;100121.88;;;29.26;52.69
26112;BME280;13829;48.990;8.346;2023-05-22T08:44:46;100110.13;;;29.72;49.58
26112;BME280;13829;48.990;8.346;2023-05-22T08:47:14;100115.53;;;29.38;47.86
26112;BME280;13829;48.990;8.346;2023-05-22T08:49:46;100119.22;;;29.02;49.65
26112;BME280;13829;48.990;8.346;2023-05-22T08:52:21;100114.94;;;28.51;52.67
26112;BME280;13829;48.990;8.346;2023-05-22T08:54:54;100110.72;;;28.22;51.43
26112;BME280;13829;48.990;8.346;2023-05-22T08:57:22;100115.19;;;28.10;54.21
26112;BME280;13829;48.990;8.346;2023-05-22T08:59:49;100115.56;;;27.67;53.75
26112;BME280;13829;48.990;8.346;2023-05-22T09:02:18;100114.63;;;27.68;54.23
26112;BME280;13829;48.990;8.346;2023-05-22T09:04:45;100118.91;;;27.83;55.16
26112;BME280;13829;48.990;8.346;2023-05-22T09:07:12;100114.44;;;27.95;54.10
26112;BME280;13829;48.990;8.346;2023-05-22T09:09:39;100117.91;;;28.10;55.07
26112;BME280;13829;48.990;8.346;2023-05-22T09:12:09;100114.56;;;28.31;53.72
26112;BME280;13829;48.990;8.346;2023-05-22T09:14:40;100118.09;;;28.20;52.57
26112;BME280;13829;48.990;8.346;2023-05-22T09:17:08;100129.56;;;28.24;52.71
26112;BME280;13829;48.990;8.346;2023-05-22T09:19:36;100122.47;;;28.10;52.72
26112;BME280;13829;48.990;8.346;2023-05-22T09:22:04;100119.66;;;27.86;53.39
26112;BME280;13829;48.990;8.346;2023-05-22T09:24:37;100124.28;;;28.09;53.70
26112;BME280;13829;48.990;8.346;2023-05-22T09:27:06;100122.34;;;28.36;54.36
26112;BME280;13829;48.990;8.346;2023-05-22T09:29:46;100126.78;;;28.61;51.44
26112;BME280;13829;48.990;8.346;2023-05-22T09:32:17;100122.78;;;28.91;53.88
26112;BME280;13829;48.990;8.346;2023-05-22T09:34:45;100117.84;;;28.85;52.45
26112;BME280;13829;48.990;8.346;2023-05-22T09:37:13;100110.91;;;28.80;52.35
26112;BME280;13829;48.990;8.346;2023-05-22T09:39:42;100113.38;;;28.59;49.93
26112;BME280;13829;48.990;8.346;2023-05-22T09:42:11;100108.72;;;28.37;53.45
26112;BME280;13829;48.990;8.346;2023-05-22T09:44:41;100107.41;;;28.43;53.58
26112;BME280;13829;48.990;8.346;2023-05-22T09:47:09;100112.56;;;28.46;51.13
26112;BME280;13829;48.990;8.346;2023-05-22T09:49:40;100103.25;;;28.26;51.64
26112;BME280;13829;48.990;8.346;2023-05-22T09:52:08;100104.06;;;28.02;51.49
26112;BME280;13829;48.990;8.346;2023-05-22T09:54:44;100102.06;;;27.67;51.70
26112;BME280;13829;48.990;8.346;2023-05-22T09:57:16;100101.22;;;27.54;53.66
26112;BME280;13829;48.990;8.346;2023-05-22T09:59:51;100096.25;;;27.47;53.29
26112;BME280;13829;48.990;8.346;2023-05-22T10:02:21;100098.91;;;27.34;53.80
26112;BME280;13829;48.990;8.346;2023-05-22T10:04:49;100094.47;;;27.21;56.25
26112;BME280;13829;48.990;8.346;2023-05-22T10:07:20;100096.53;;;27.17;55.41
26112;BME280;13829;48.990;8.346;2023-05-22T10:10:01;100097.59;;;27.14;58.55
26112;BME280;13829;48.990;8.346;2023-05-22T10:12:32;100093.41;;;27.10;57.43
26112;BME280;13829;48.990;8.346;2023-05-22T10:15:05;100091.34;;;27.14;56.39
26112;BME280;13829;48.990;8.346;2023-05-22T10:17:35;100093.53;;;27.22;58.65
26112;BME280;13829;48.990;8.346;2023-05-22T10:20:05;100090.38;;;27.02;57.86
26112;BME280;13829;48.990;8.346;2023-05-22T10:22:35;100085.31;;;27.10;57.40
26112;BME280;13829;48.990;8.346;2023-05-22T10:25:04;100088.66;;;27.27;57.82
26112;BME280;13829;48.990;8.346;2023-05-22T10:27:32;100077.44;;;27.46;56.54
26112;BME280;13829;48.990;8.346;2023-05-22T10:30:10;100074.97;;;27.56;56.69
26112;BME280;13829;48.990;8.346;2023-05-22T10:32:45;100073.53;;;27.37;55.88
26112;BME280;13829;48.990;8.346;2023-05-22T10:35:20;100083.28;;;27.40;55.71
26112;BME280;13829;48.990;8.346;2023-05-22T10:37:50;100064.78;;;27.21;58.20
26112;BME280;13829;48.990;8.346;2023-05-22T10:40:24;100065.63;;;27.08;56.51
26112;BME280;13829;48.990;8.346;2023-05-22T10:42:58;100062.09;;;26.95;56.15
26112;BME280;13829;48.990;8.346;2023-05-22T10:45:28;100064.50;;;26.72;58.64
26112;BME280;13829;48.990;8.346;2023-05-22T10:48:07;100061.00;;;26.57;57.13
26112;BME280;13829;48.990;8.346;2023-05-22T10:50:35;100057.31;;;26.45;59.58
26112;BME280;13829;48.990;8.346;2023-05-22T10:53:22;100044.16;;;26.53;63.99
26112;BME280;13829;48.990;8.346;2023-05-22T10:55:50;100057.09;;;26.48;62.84
26112;BME280;13829;48.990;8.346;2023-05-22T10:58:24;100048.66;;;26.40;61.56
26112;BME280;13829;48.990;8.346;2023-05-22T11:03:56;100046.78;;;26.28;59.89
26112;BME280;13829;48.990;8.346;2023-05-22T11:06:37;100045.88;;;26.42;59.98
26112;BME280;13829;48.990;8.346;2023-05-22T11:09:26;100042.06;;;26.31;60.70
26112;BME280;13829;48.990;8.346;2023-05-22T11:12:14;100040.63;;;26.26;59.90
26112;BME280;13829;48.990;8.346;2023-05-22T11:14:46;100030.09;;;26.35;59.73
26112;BME280;13829;48.990;8.346;2023-05-22T11:17:16;100031.94;;;26.35;60.10
26112;BME280;13829;48.990;8.346;2023-05-22T11:20:00;100022.16;;;26.47;59.97
26112;BME280;13829;48.990;8.346;2023-05-22T11:22:40;100027.09;;;26.40;58.49
26112;BME280;13829;48.990;8.346;2023-05-22T11:25:09;100023.53;;;26.40;59.25
26112;BME280;13829;48.990;8.346;2023-05-22T11:27:38;100021.47;;;26.30;58.62
26112;BME280;13829;48.990;8.346;2023-05-22T11:30:08;100022.31;;;26.31;61.08
26112;BME280;13829;48.990;8.346;2023-05-22T11:32:39;100022.31;;;26.31;59.17
26112;BME280;13829;48.990;8.346;2023-05-22T11:35:13;100017.31;;;26.25;56.30
26112;BME280;13829;48.990;8.346;2023-05-22T11:37:40;100012.50;;;26.30;57.60
26112;BME280;13829;48.990;8.346;2023-05-22T11:40:09;100007.13;;;26.30;59.05
26112;BME280;13829;48.990;8.346;2023-05-22T11:42:36;100008.41;;;26.37;60.46
26112;BME280;13829;48.990;8.346;2023-05-22T11:45:05;100007.47;;;26.38;59.04
26112;BME280;13829;48.990;8.346;2023-05-22T11:47:32;100003.38;;;26.45;57.73
26112;BME280;13829;48.990;8.346;2023-05-22T11:50:00;99997.78;;;26.61;55.88
26112;BME280;13829;48.990;8.346;2023-05-22T11:52:32;99996.28;;;26.57;55.91
26112;BME280;13829;48.990;8.346;2023-05-22T11:55:03;99998.66;;;26.62;54.94
26112;BME280;13829;48.990;8.346;2023-05-22T11:57:31;99992.31;;;26.63;53.19
26112;BME280;13829;48.990;8.346;2023-05-22T11:59:59;99995.00;;;26.63;53.30
26112;BME280;13829;48.990;8.346;2023-05-22T12:02:26;99997.47;;;26.66;53.61
26112;BME280;13829;48.990;8.346;2023-05-22T12:04:53;99990.56;;;26.62;52.81
26112;BME280;13829;48.990;8.346;2023-05-22T12:07:20;99994.34;;;26.72;54.20
26112;BME280;13829;48.990;8.346;2023-05-22T12:09:49;100002.88;;;26.66;55.57
26112;BME280;13829;48.990;8.346;2023-05-22T12:12:16;99987.66;;;26.65;56.95
26112;BME280;13829;48.990;8.346;2023-05-22T12:14:44;100005.25;;;26.70;55.10
26112;BME280;13829;48.990;8.346;2023-05-22T12:17:12;99995.03;;;26.76;54.40
26112;BME280;13829;48.990;8.346;2023-05-22T12:19:39;99999.03;;;26.83;54.78
26112;BME280;13829;48.990;8.346;2023-05-22T12:22:07;99999.38;;;26.78;52.14
26112;BME280;13829;48.990;8.346;2023-05-22T12:24:38;99998.72;;;26.75;54.15
26112;BME280;13829;48.990;8.346;2023-05-22T12:27:09;99992.88;;;26.94;55.07
26112;BME280;13829;48.990;8.346;2023-05-22T12:29:37;99986.84;;;27.03;51.90
26112;BME280;13829;48.990;8.346;2023-05-22T12:32:07;99990.41;;;27.04;48.50
26112;BME280;13829;48.990;8.346;2023-05-22T12:34:42;99986.00;;;26.90;49.17
26112;BME280;13829;48.990;8.346;2023-05-22T12:37:18;99991.59;;;26.86;48.10
26112;BME280;13829;48.990;8.346;2023-05-22T12:39:55;99985.13;;;27.02;45.60
26112;BME280;13829;48.990;8.346;2023-05-22T12:42:24;99983.59;;;26.98;48.40
26112;BME280;13829;48.990;8.346;2023-05-22T12:44:53;99989.09;;;27.09;44.82
26112;BME280;13829;48.990;8.346;2023-05-22T12:47:21;99979.63;;;27.04;43.95
26112;BME280;13829;48.990;8.346;2023-05-22T12:49:48;99976.28;;;27.00;48.89
26112;BME280;13829;48.990;8.346;2023-05-22T12:52:16;99974.41;;;27.00;51.29
26112;BME280;13829;48.990;8.346;2023-05-22T12:54:43;99970.75;;;27.14;51.71
26112;BME280;13829;48.990;8.346;2023-05-22T12:57:10;99968.25;;;27.24;50.72
26112;BME280;13829;48.990;8.346;2023-05-22T12:59:38;99972.38;;;27.30;46.90